Time;durP1;ratioP1;P1;durP2;ratioP2;P2;SDS_P1;SDS_P2;PMS_P1;PMS_P2;Temp;Humidity;BMP_temperature;BMP_pressure;BME280_temperature;BME280_humidity;BME280_pressure;Samples;Min_cycle;Max_cycle;Signal;HPM_P1;HPM_P2
2024/01/22 00:02:04;;;;;;;9.73;4.68;;;;;;;-2.64;64.51;93772.84;2048862;70;20234;-75
2024/01/22 00:04:29;;;;;;;10.38;4.60;;;;;;;-2.91;65.30;93760.50;2049809;70;20142;-75
2024/01/22 00:06:55;;;;;;;10.20;4.45;;;;;;;-2.79;64.56;93758.53;2050347;70;20169;-74
2024/01/22 00:09:20;;;;;;;10.02;4.45;;;;;;;-2.78;64.23;93768.31;2049461;70;20527;-77
2024/01/22 00:11:46;;;;;;;10.00;4.22;;;;;;;-2.90;64.67;93747.47;2049033;70;20162;-75
2024/01/22 00:14:12;;;;;;;9.98;4.55;;;;;;;-2.86;64.67;93761.78;2048982;70;20154;-75
2024/01/22 00:16:39;;;;;;;10.18;4.72;;;;;;;-2.82;64.22;93756.78;2048963;70;20214;-74
2024/01/22 00:19:08;;;;;;;11.77;4.90;;;;;;;-3.00;64.36;93749.72;2049704;70;20180;-74
2024/01/22 00:21:34;;;;;;;8.98;4.18;;;;;;;-2.95;64.09;93762.75;2049259;70;20146;-82
2024/01/22 00:23:59;;;;;;;11.80;4.97;;;;;;;-2.88;64.92;93767.03;2049008;70;20674;-75
2024/01/22 00:26:25;;;;;;;9.68;4.47;;;;;;;-3.05;65.10;93764.25;2048987;70;20698;-76
2024/01/22 00:28:51;;;;;;;11.52;4.88;;;;;;;-2.90;64.46;93770.28;2048355;70;20587;-73
2024/01/22 00:31:16;;;;;;;10.77;4.50;;;;;;;-3.15;64.66;93751.94;2049074;70;20598;-76
2024/01/22 00:33:43;;;;;;;9.77;4.72;;;;;;;-3.10;64.54;93740.94;2049102;70;20594;-76
2024/01/22 00:36:15;;;;;;;9.35;4.90;;;;;;;-3.07;65.35;93747.44;2049545;70;20242;-78
2024/01/22 00:38:41;;;;;;;11.63;5.13;;;;;;;-3.05;66.14;93746.97;2049191;70;20130;-77
2024/01/22 00:41:08;;;;;;;9.15;4.57;;;;;;;-3.04;65.79;93738.19;2048753;70;20139;-81
2024/01/22 00:43:34;;;;;;;12.25;4.70;;;;;;;-2.95;65.17;93729.69;2047967;70;20167;-86
2024/01/22 00:46:03;;;;;;;12.15;4.40;;;;;;;-2.90;64.59;93726.19;2047904;70;20603;-78
2024/01/22 00:48:29;;;;;;;11.45;4.72;;;;;;;-3.09;65.31;93723.16;2048103;70;20162;-85
2024/01/22 00:50:54;;;;;;;11.55;4.88;;;;;;;-3.04;65.15;93723.66;2048071;70;20599;-80
2024/01/22 00:53:20;;;;;;;10.93;4.43;;;;;;;-3.07;65.40;93731.69;2047821;70;20232;-83
2024/01/22 00:55:46;;;;;;;9.25;4.40;;;;;;;-3.04;65.08;93735.44;2048209;70;20262;-76
2024/01/22 00:58:12;;;;;;;13.18;4.97;;;;;;;-3.12;65.28;93729.63;2048267;70;20155;-76
2024/01/22 01:00:38;;;;;;;12.20;4.60;;;;;;;-3.22;66.02;93730.38;2048722;70;20232;-93
2024/01/22 01:03:04;;;;;;;10.70;4.65;;;;;;;-3.38;65.88;93735.34;2051183;70;20636;-77
2024/01/22 01:05:29;;;;;;;8.35;4.28;;;;;;;-3.30;66.34;93730.09;2051713;70;20150;-80
2024/01/22 01:07:55;;;;;;;8.27;3.97;;;;;;;-3.17;66.04;93716.63;2053002;69;20159;-77
2024/01/22 01:10:21;;;;;;;10.05;3.85;;;;;;;-3.07;65.74;93717.13;2053034;69;20551;-75
2024/01/22 01:12:47;;;;;;;8.30;3.97;;;;;;;-2.96;65.51;93717.16;2051664;69;20595;-78
2024/01/22 01:15:12;;;;;;;11.25;4.65;;;;;;;-3.00;65.30;93716.66;2052523;70;20221;-75
2024/01/22 01:17:38;;;;;;;9.02;4.30;;;;;;;-2.90;64.63;93719.94;2052587;69;20142;-75
2024/01/22 01:20:04;;;;;;;8.38;4.15;;;;;;;-3.20;65.72;93720.38;2051889;70;20204;-75
2024/01/22 01:22:31;;;;;;;7.18;3.40;;;;;;;-3.10;65.03;93713.38;2051793;70;20190;-78
2024/01/22 01:24:57;;;;;;;10.02;4.05;;;;;;;-3.00;64.65;93716.66;2052121;70;20249;-75
2024/01/22 01:27:23;;;;;;;7.82;3.28;;;;;;;-3.03;65.12;93714.13;2052485;70;20319;-75
2024/01/22 01:29:48;;;;;;;6.57;2.80;;;;;;;-3.25;65.41;93709.31;2052909;70;20143;-78
2024/01/22 01:32:14;;;;;;;5.80;3.15;;;;;;;-3.17;65.71;93705.59;2051216;70;20154;-76
2024/01/22 01:34:39;;;;;;;7.30;3.28;;;;;;;-3.11;65.99;93713.88;2051259;70;20227;-78
2024/01/22 01:37:05;;;;;;;5.78;3.05;;;;;;;-3.20;66.08;93717.63;2050903;70;20208;-78
2024/01/22 01:39:31;;;;;;;7.10;3.65;;;;;;;-3.13;65.78;93705.34;2051545;70;20153;-82
2024/01/22 01:41:57;;;;;;;8.50;3.70;;;;;;;-2.96;64.76;93706.16;2051447;70;20142;-88
2024/01/22 01:44:49;;;;;;;10.15;3.30;;;;;;;-3.11;65.66;93700.88;2050851;70;20151;-81
2024/01/22 01:47:15;;;;;;;;;;;;;;;-3.02;65.37;93701.84;2050615;70;20240;-79
2024/01/22 01:49:41;;;;;;;6.72;3.30;;;;;;;-3.12;65.44;93709.59;2051715;69;20046;-83
2024/01/22 01:52:09;;;;;;;6.25;3.25;;;;;;;-3.13;64.86;93692.34;2052033;69;20143;-86
2024/01/22 01:54:35;;;;;;;11.02;3.75;;;;;;;-3.06;64.58;93696.63;2051426;70;20139;-83
2024/01/22 01:57:01;;;;;;;5.38;2.85;;;;;;;-3.02;64.45;93688.88;2048619;70;20142;-76
2024/01/22 01:59:27;;;;;;;9.20;3.22;;;;;;;-2.92;63.67;93672.84;2053232;70;20595;-78
2024/01/22 02:01:53;;;;;;;5.40;2.80;;;;;;;-2.79;64.18;93683.34;2053042;69;20145;-80
2024/01/22 02:04:18;;;;;;;6.22;3.00;;;;;;;-2.77;63.96;93692.63;2052667;70;20146;-76
2024/01/22 02:06:44;;;;;;;6.90;3.03;;;;;;;-2.95;63.56;93687.59;2051208;70;20142;-78
2024/01/22 02:09:10;;;;;;;6.43;3.03;;;;;;;-2.89;63.41;93689.09;2051735;70;20587;-78
2024/01/22 02:11:36;;;;;;;5.20;2.50;;;;;;;-2.79;63.86;93681.38;2051065;69;20169;-81
2024/01/22 02:14:01;;;;;;;5.45;2.83;;;;;;;-3.11;64.29;93683.59;2051470;70;20587;-81
2024/01/22 02:16:27;;;;;;;6.75;3.00;;;;;;;-2.88;63.91;93684.38;2052761;69;20158;-74
2024/01/22 02:18:53;;;;;;;5.85;2.45;;;;;;;-2.84;63.74;93671.84;2052025;70;20574;-78
2024/01/22 02:21:18;;;;;;;5.57;2.70;;;;;;;-3.17;64.54;93677.28;2049547;69;20206;-75
2024/01/22 02:23:44;;;;;;;8.13;3.63;;;;;;;-3.19;65.46;93688.81;2041955;70;20595;-80
2024/01/22 02:26:10;;;;;;;5.22;2.80;;;;;;;-2.92;64.02;93689.38;2044168;70;20568;-81
2024/01/22 02:28:35;;;;;;;6.47;3.08;;;;;;;-2.84;63.58;93676.59;2045192;70;20170;-75
2024/01/22 02:31:02;;;;;;;2.22;1.30;;;;;;;-2.63;63.62;93677.84;2045509;70;20131;-75
2024/01/22 02:33:28;;;;;;;3.33;1.70;;;;;;;-2.59;63.46;93672.84;2045157;70;20131;-80
2024/01/22 02:35:54;;;;;;;3.35;1.48;;;;;;;-2.37;61.03;93652.00;2045225;70;20252;-80
2024/01/22 02:38:19;;;;;;;3.47;1.70;;;;;;;-2.36;61.03;93672.81;2044201;70;20150;-78
2024/01/22 02:40:45;;;;;;;6.20;2.25;;;;;;;-2.44;61.28;93671.81;2044768;70;20163;-80
2024/01/22 02:43:10;;;;;;;5.68;2.50;;;;;;;-2.41;61.37;93676.34;2044804;70;20173;-79
2024/01/22 02:45:36;;;;;;;3.90;2.10;;;;;;;-2.39;60.86;93669.06;2044976;70;20151;-78
2024/01/22 02:48:02;;;;;;;5.72;2.28;;;;;;;-2.43;60.92;93665.81;2044105;70;20261;-80
2024/01/22 02:50:27;;;;;;;4.85;2.22;;;;;;;-2.52;61.70;93674.34;2044387;70;20149;-83
2024/01/22 02:52:53;;;;;;;5.65;2.55;;;;;;;-2.70;62.24;93674.84;2044161;70;20241;-79
2024/01/22 02:55:19;;;;;;;4.70;2.28;;;;;;;-2.55;61.88;93675.34;2044451;70;20188;-75
2024/01/22 02:57:45;;;;;;;5.72;2.35;;;;;;;-2.85;62.68;93669.56;2043751;70;20189;-78
2024/01/22 03:00:11;;;;;;;4.93;2.40;;;;;;;-2.72;62.58;93669.06;2044551;70;20624;-77
2024/01/22 03:02:37;;;;;;;4.25;2.50;;;;;;;-2.61;62.21;93663.56;2045017;70;20167;-77
2024/01/22 03:05:03;;;;;;;4.88;2.35;;;;;;;-2.59;62.53;93656.28;2045710;70;20661;-75
2024/01/22 03:07:32;;;;;;;4.95;2.17;;;;;;;-2.63;62.66;93649.53;2044900;70;20199;-75
2024/01/22 03:09:57;;;;;;;2.40;1.60;;;;;;;-2.40;62.14;93647.50;2044955;70;20532;-81
2024/01/22 03:12:23;;;;;;;1.95;1.35;;;;;;;-2.18;61.23;93638.44;2044959;70;20256;-74
2024/01/22 03:14:49;;;;;;;3.95;1.70;;;;;;;-2.35;61.07;93644.72;2045198;70;20228;-79
2024/01/22 03:17:14;;;;;;;6.03;2.30;;;;;;;-2.42;60.64;93627.97;2044506;70;20147;-76
2024/01/22 03:19:40;;;;;;;3.50;1.80;;;;;;;-2.29;60.64;93617.16;2045281;70;20135;-74
2024/01/22 03:22:05;;;;;;;5.25;2.10;;;;;;;-2.19;60.03;93618.38;2044978;70;20143;-84
2024/01/22 03:24:31;;;;;;;3.63;1.70;;;;;;;-2.24;60.05;93610.88;2045777;70;20139;-78
2024/01/22 03:26:57;;;;;;;3.85;2.10;;;;;;;-2.33;60.31;93614.66;2045520;70;20151;-79
2024/01/22 03:29:22;;;;;;;5.68;2.20;;;;;;;-2.27;60.18;93620.16;2044988;70;20194;-75
2024/01/22 03:31:48;;;;;;;5.68;1.90;;;;;;;-2.35;61.33;93630.94;2044579;70;20170;-76
2024/01/22 03:34:14;;;;;;;3.33;1.80;;;;;;;-2.37;61.33;93629.94;2045788;70;20250;-76
2024/01/22 03:36:40;;;;;;;4.85;2.00;;;;;;;-2.27;60.60;93635.94;2045263;70;20165;-77
2024/01/22 03:39:06;;;;;;;4.70;2.35;;;;;;;-2.22;60.69;93627.66;2045633;70;20145;-74
2024/01/22 03:41:33;;;;;;;4.50;2.28;;;;;;;-2.23;60.82;93623.41;2044777;70;20158;-80
2024/01/22 03:43:58;;;;;;;6.25;2.63;;;;;;;-2.35;61.15;93625.41;2044950;70;20722;-76
2024/01/22 03:46:24;;;;;;;6.05;2.63;;;;;;;-2.26;61.32;93615.38;2045187;70;20151;-77
2024/01/22 03:48:50;;;;;;;4.35;2.50;;;;;;;-2.33;60.80;93616.66;2044543;70;20508;-73
2024/01/22 03:51:16;;;;;;;7.90;2.95;;;;;;;-2.32;60.77;93610.63;2046303;70;20241;-73
2024/01/22 03:53:41;;;;;;;4.30;2.30;;;;;;;-2.31;60.80;93609.38;2046772;70;20234;-74
2024/01/22 03:56:07;;;;;;;4.22;2.35;;;;;;;-2.22;60.58;93604.84;2047027;70;20149;-74
2024/01/22 03:58:33;;;;;;;3.60;1.92;;;;;;;-2.06;59.96;93604.78;2045819;70;20142;-77
2024/01/22 04:01:00;;;;;;;3.83;2.00;;;;;;;-2.02;60.38;93612.03;2044853;70;20147;-78
2024/01/22 04:03:26;;;;;;;4.13;2.10;;;;;;;-2.08;60.16;93609.31;2045128;70;20246;-77
2024/01/22 04:06:26;;;;;;;6.18;2.38;;;;;;;-2.07;59.73;93617.06;2044655;70;20226;-79
2024/01/22 04:08:51;;;;;;;6.43;2.00;;;;;;;-2.08;59.73;93625.84;2044209;70;20208;-85
2024/01/22 04:11:17;;;;;;;3.45;1.90;;;;;;;-2.10;60.10;93639.44;2045076;70;20214;-83
2024/01/22 04:13:43;;;;;;;6.20;2.55;;;;;;;-2.09;59.93;93635.41;2041468;70;20524;-83
2024/01/22 04:16:13;;;;;;;4.65;2.38;;;;;;;-2.37;60.64;93632.72;2044313;70;20145;-79
2024/01/22 04:18:41;;;;;;;5.30;2.88;;;;;;;-2.25;60.93;93636.94;2044441;70;20678;-76
2024/01/22 04:21:07;;;;;;;8.35;2.50;;;;;;;-2.31;61.19;93639.72;2045054;70;20663;-76
2024/01/22 04:23:34;;;;;;;5.38;2.80;;;;;;;-2.35;61.49;93638.47;2044807;70;20547;-83
2024/01/22 04:26:03;;;;;;;5.70;2.40;;;;;;;-2.27;60.70;93633.94;2044981;70;20230;-87
2024/01/22 04:28:29;;;;;;;5.90;2.45;;;;;;;-2.27;61.28;93625.66;2045380;70;20143;-77
2024/01/22 04:30:55;;;;;;;5.28;2.58;;;;;;;-2.32;61.76;93623.66;2045705;70;20547;-78
2024/01/22 04:33:20;;;;;;;4.75;2.63;;;;;;;-2.32;61.74;93629.94;2045621;70;20146;-78
2024/01/22 04:35:46;;;;;;;5.97;2.60;;;;;;;-2.31;61.43;93628.66;2044765;70;20635;-83
2024/01/22 04:38:12;;;;;;;6.55;2.70;;;;;;;-2.33;61.08;93619.41;2044815;70;20614;-81
2024/01/22 04:40:37;;;;;;;10.95;3.55;;;;;;;-2.61;62.64;93622.97;2044855;70;20131;-78
2024/01/22 04:43:03;;;;;;;8.38;3.05;;;;;;;-2.69;63.03;93629.50;2044962;70;20143;-81
2024/01/22 04:45:29;;;;;;;6.72;3.03;;;;;;;-2.60;62.74;93621.72;2044824;70;20146;-84
2024/01/22 04:47:55;;;;;;;11.60;3.10;;;;;;;-2.52;62.56;93627.47;2044398;70;20591;-77
2024/01/22 04:50:21;;;;;;;3.70;1.83;;;;;;;-2.40;62.61;93628.94;2044902;70;20147;-75
2024/01/22 04:52:46;;;;;;;6.85;2.83;;;;;;;-2.38;62.50;93625.69;2044796;70;20155;-77
2024/01/22 04:55:12;;;;;;;6.35;2.40;;;;;;;-2.49;62.89;93629.22;2045088;70;20147;-76
2024/01/22 04:57:38;;;;;;;5.85;2.15;;;;;;;-2.37;62.10;93611.41;2044494;70;20153;-78
2024/01/22 05:00:05;;;;;;;7.47;3.67;;;;;;;-2.26;61.33;93621.63;2044969;70;20177;-80
2024/01/22 05:02:32;;;;;;;8.15;4.40;;;;;;;-2.27;61.07;93617.38;2044834;70;20174;-81
2024/01/22 05:04:59;;;;;;;7.10;3.72;;;;;;;-2.20;60.79;93611.34;2044815;70;20159;-78
2024/01/22 05:07:25;;;;;;;11.30;6.00;;;;;;;-2.38;61.44;93615.41;2044612;70;20155;-76
2024/01/22 05:09:58;;;;;;;7.95;4.80;;;;;;;-2.29;61.46;93614.41;2044242;70;20139;-82
2024/01/22 05:12:24;;;;;;;11.45;4.35;;;;;;;-2.41;61.86;93608.13;2044867;70;20169;-75
2024/01/22 05:14:51;;;;;;;5.20;2.90;;;;;;;-2.08;60.44;93610.06;2044893;70;20166;-77
2024/01/22 05:17:16;;;;;;;6.65;3.30;;;;;;;-2.16;60.99;93608.31;2044360;70;20615;-79
2024/01/22 05:19:42;;;;;;;8.82;3.42;;;;;;;-2.13;60.91;93607.31;2044263;70;20143;-77
2024/01/22 05:22:08;;;;;;;4.32;2.30;;;;;;;-2.16;61.34;93602.81;2044626;70;20154;-75
2024/01/22 05:24:33;;;;;;;6.50;2.08;;;;;;;-2.06;61.55;93593.00;2044777;70;20257;-77
2024/01/22 05:26:59;;;;;;;5.60;2.13;;;;;;;-1.93;60.56;93595.19;2044944;70;20139;-78
2024/01/22 05:29:25;;;;;;;4.72;2.50;;;;;;;-2.05;60.22;93573.19;2044390;70;20147;-75
2024/01/22 05:31:50;;;;;;;13.40;6.82;;;;;;;-1.93;60.32;93578.63;2044844;70;20670;-78
2024/01/22 05:34:16;;;;;;;12.95;6.25;;;;;;;-1.90;59.70;93572.09;2044799;70;20676;-76
2024/01/22 05:36:43;;;;;;;16.98;7.85;;;;;;;-1.90;59.92;93570.09;2044407;70;20163;-75
2024/01/22 05:39:08;;;;;;;14.40;6.93;;;;;;;-1.80;60.46;93556.75;2044699;70;20229;-84
2024/01/22 05:41:34;;;;;;;7.60;3.42;;;;;;;-1.83;61.13;93561.28;2044673;70;20572;-77
2024/01/22 05:44:00;;;;;;;8.05;3.33;;;;;;;-1.92;60.87;93569.13;2044642;70;20150;-79
2024/01/22 05:46:30;;;;;;;15.10;5.60;;;;;;;-1.83;60.37;93579.88;2044893;70;20185;-79
2024/01/22 05:48:55;;;;;;;8.80;4.07;;;;;;;-1.79;60.29;93577.56;2044755;70;20687;-81
2024/01/22 05:51:21;;;;;;;9.85;3.85;;;;;;;-1.83;60.44;93575.09;2044820;70;20159;-79
2024/01/22 05:53:47;;;;;;;10.23;4.40;;;;;;;-1.95;60.47;93568.13;2044139;70;20139;-75
2024/01/22 05:56:22;;;;;;;5.20;3.03;;;;;;;-1.70;60.28;93566.22;2044789;70;20226;-75
2024/01/22 05:58:49;;;;;;;8.95;3.65;;;;;;;-1.75;60.34;93567.00;2044693;70;20162;-79
2024/01/22 06:01:25;;;;;;;9.88;4.22;;;;;;;-1.83;60.00;93569.56;2045051;70;20139;-75
2024/01/22 06:03:53;;;;;;;9.18;4.45;;;;;;;-1.77;60.15;93582.59;2044736;70;20169;-76
2024/01/22 06:06:19;;;;;;;11.10;5.00;;;;;;;-1.96;60.15;93577.66;2044639;70;20497;-75
2024/01/22 06:08:47;;;;;;;16.77;7.00;;;;;;;-2.18;61.33;93574.97;2044042;70;20139;-76
2024/01/22 06:11:15;;;;;;;13.57;5.32;;;;;;;-2.01;61.33;93570.16;2044704;70;20143;-77
2024/01/22 06:13:43;;;;;;;11.35;6.05;;;;;;;-1.98;60.64;93568.38;2044698;70;20221;-76
2024/01/22 06:16:13;;;;;;;22.15;12.45;;;;;;;-1.86;61.12;93558.78;2044925;70;20539;-80
2024/01/22 06:18:41;;;;;;;22.55;12.20;;;;;;;-1.85;60.65;93555.50;2044864;70;20193;-76
2024/01/22 06:21:07;;;;;;;18.17;8.63;;;;;;;-1.86;60.71;93551.25;2044641;70;20206;-78
2024/01/22 06:23:33;;;;;;;14.45;7.90;;;;;;;-2.07;61.24;93550.84;2044534;70;20237;-76
2024/01/22 06:25:59;;;;;;;17.05;7.78;;;;;;;-2.38;62.72;93562.25;2044840;70;20598;-76
2024/01/22 06:28:28;;;;;;;14.57;7.15;;;;;;;-2.16;62.39;93561.41;2044124;70;20142;-77
2024/01/22 06:30:54;;;;;;;16.58;9.65;;;;;;;-2.28;63.03;93560.72;2044796;70;20182;-79
2024/01/22 06:33:21;;;;;;;16.70;9.15;;;;;;;-2.13;62.91;93569.44;2044588;70;20631;-75
2024/01/22 06:35:47;;;;;;;16.73;8.38;;;;;;;-2.10;62.56;93553.88;2044312;70;20174;-76
2024/01/22 06:38:14;;;;;;;82.03;27.42;;;;;;;-2.09;62.99;93553.38;2044598;70;20151;-76
2024/01/22 06:40:39;;;;;;;120.13;36.53;;;;;;;-1.82;61.67;93546.22;2044602;70;20242;-76
2024/01/22 06:43:05;;;;;;;63.33;22.33;;;;;;;-1.88;61.74;93537.22;2044581;70;20567;-76
2024/01/22 06:45:31;;;;;;;131.52;42.25;;;;;;;-1.68;61.21;93541.63;2044488;70;20154;-77
2024/01/22 06:47:56;;;;;;;50.65;23.00;;;;;;;-1.65;61.00;93543.38;2044555;70;20473;-77
2024/01/22 06:50:22;;;;;;;65.53;27.00;;;;;;;-1.42;59.86;93538.47;2044526;70;20165;-77
2024/01/22 06:52:49;;;;;;;14.18;6.63;;;;;;;-1.25;59.15;93529.28;2044293;70;20222;-76
2024/01/22 06:55:15;;;;;;;9.93;4.57;;;;;;;-1.24;59.19;93534.28;2044413;70;20278;-78
2024/01/22 06:57:41;;;;;;;12.07;4.55;;;;;;;-1.22;59.14;93531.03;2044358;70;20147;-76
2024/01/22 07:00:07;;;;;;;8.98;4.70;;;;;;;-1.33;60.42;93532.63;2044296;70;20234;-77
2024/01/22 07:02:35;;;;;;;12.02;5.15;;;;;;;-1.42;60.03;93523.88;2044559;70;20143;-77
2024/01/22 07:05:01;;;;;;;13.88;5.20;;;;;;;-1.59;60.87;93519.22;2044422;70;20151;-78
2024/01/22 07:07:27;;;;;;;6.95;3.40;;;;;;;-1.32;61.29;93514.78;2044291;70;20143;-79
2024/01/22 07:09:53;;;;;;;5.88;2.60;;;;;;;-1.26;60.38;93511.97;2044645;70;20163;-76
2024/01/22 07:12:19;;;;;;;11.55;2.55;;;;;;;-1.08;59.55;93516.09;2044347;70;20261;-76
2024/01/22 07:14:46;;;;;;;4.28;2.00;;;;;;;-0.95;59.41;93526.53;2044302;70;20520;-76
2024/01/22 07:17:15;;;;;;;5.43;2.10;;;;;;;-0.92;59.34;93528.25;2044373;70;20155;-76
2024/01/22 07:19:41;;;;;;;5.38;2.78;;;;;;;-0.99;59.21;93535.09;2044392;70;20608;-77
2024/01/22 07:22:07;;;;;;;4.07;2.50;;;;;;;-0.79;58.53;93517.31;2043705;70;20158;-76
2024/01/22 07:24:32;;;;;;;5.85;3.10;;;;;;;-0.74;58.38;93508.22;2044345;70;20135;-78
2024/01/22 07:26:58;;;;;;;8.70;3.00;;;;;;;-0.65;58.09;93507.13;2044458;70;20242;-78
2024/01/22 07:29:24;;;;;;;24.98;9.73;;;;;;;-0.75;58.80;93505.97;2043867;70;20186;-79
2024/01/22 07:31:50;;;;;;;21.17;8.35;;;;;;;-0.70;58.92;93499.66;2044391;70;20153;-76
2024/01/22 07:34:15;;;;;;;22.98;7.80;;;;;;;-0.66;59.55;93495.31;2044362;70;20551;-79
2024/01/22 07:36:41;;;;;;;20.27;7.80;;;;;;;-0.73;59.82;93498.69;2044369;70;20150;-80
2024/01/22 07:39:07;;;;;;;17.52;6.97;;;;;;;-0.59;59.16;93486.47;2044246;70;20142;-80
2024/01/22 07:41:38;;;;;;;16.20;6.03;;;;;;;-0.58;59.91;93501.03;2043704;70;20142;-78
2024/01/22 07:44:04;;;;;;;16.35;6.35;;;;;;;-0.55;59.29;93500.75;2044386;70;20166;-77
2024/01/22 07:46:30;;;;;;;11.63;5.50;;;;;;;-0.39;59.46;93492.78;2044038;70;20178;-77
2024/01/22 07:48:56;;;;;;;7.68;3.88;;;;;;;-0.58;59.51;93465.81;2044806;70;20615;-83
2024/01/22 07:51:23;;;;;;;14.10;5.75;;;;;;;-0.40;59.22;93505.13;2044997;70;20143;-80
2024/01/22 07:53:49;;;;;;;13.30;5.90;;;;;;;-0.24;58.95;93506.19;2045126;70;20179;-76
2024/01/22 07:56:14;;;;;;;13.63;5.15;;;;;;;-0.11;58.77;93503.50;2045110;70;20296;-78
2024/01/22 07:58:40;;;;;;;13.23;4.70;;;;;;;-0.07;59.05;93498.44;2045038;70;20190;-78
2024/01/22 08:01:06;;;;;;;8.30;3.83;;;;;;;0.07;58.04;93494.47;2045060;70;20253;-81
2024/01/22 08:03:32;;;;;;;15.05;5.47;;;;;;;0.11;58.03;93491.41;2041741;70;20230;-76
2024/01/22 08:05:59;;;;;;;14.48;6.20;;;;;;;0.16;58.14;93485.78;2045102;70;20252;-75
2024/01/22 08:08:28;;;;;;;20.05;6.95;;;;;;;0.24;57.71;93472.84;2044880;70;20226;-75
2024/01/22 08:10:54;;;;;;;14.68;6.70;;;;;;;0.26;58.13;93486.16;2045777;70;20139;-84
2024/01/22 08:13:20;;;;;;;25.33;8.43;;;;;;;0.36;58.19;93483.75;2045818;70;20143;-77
2024/01/22 08:15:49;;;;;;;23.02;8.95;;;;;;;0.47;58.10;93489.16;2045513;70;20183;-76
2024/01/22 08:18:15;;;;;;;23.05;8.35;;;;;;;0.45;58.17;93492.44;2045045;70;20287;-76
2024/01/22 08:20:42;;;;;;;18.10;7.75;;;;;;;0.57;58.64;93479.16;2044808;70;20600;-77
2024/01/22 08:23:09;;;;;;;19.27;8.60;;;;;;;0.71;58.70;93482.72;2044224;70;20139;-76
2024/01/22 08:25:35;;;;;;;21.50;9.32;;;;;;;0.73;57.62;93471.84;2045091;70;20224;-81
2024/01/22 08:28:01;;;;;;;15.32;6.18;;;;;;;0.84;57.14;93460.59;2044947;70;20151;-78
2024/01/22 08:30:27;;;;;;;14.73;5.95;;;;;;;1.00;57.48;93473.41;2044964;70;20178;-78
2024/01/22 08:32:54;;;;;;;15.80;5.13;;;;;;;1.12;58.19;93470.47;2044842;70;20155;-78
2024/01/22 08:35:21;;;;;;;9.30;3.13;;;;;;;1.25;58.28;93464.94;2044961;70;20614;-83
2024/01/22 08:37:52;;;;;;;9.57;4.70;;;;;;;1.45;55.71;93460.78;2044685;70;20162;-79
2024/01/22 08:40:22;;;;;;;10.60;4.70;;;;;;;1.49;55.87;93469.53;2044697;70;20179;-76
2024/01/22 08:42:50;;;;;;;11.95;5.07;;;;;;;1.45;56.24;93464.31;2044261;70;20143;-81
2024/01/22 08:45:16;;;;;;;15.60;5.55;;;;;;;1.60;56.48;93466.53;2044727;70;20151;-79
2024/01/22 08:47:44;;;;;;;18.85;8.00;;;;;;;1.62;56.28;93436.22;2044734;70;20147;-76
2024/01/22 08:50:11;;;;;;;18.88;7.68;;;;;;;1.75;56.40;93466.03;2044381;70;20151;-76
2024/01/22 08:52:37;;;;;;;17.10;7.00;;;;;;;1.89;56.18;93452.88;2044132;70;20163;-83
2024/01/22 08:55:05;;;;;;;24.80;9.57;;;;;;;1.94;56.01;93454.78;2044835;70;20151;-76
2024/01/22 08:57:31;;;;;;;19.85;9.57;;;;;;;2.08;56.03;93449.94;2044838;70;20675;-76
2024/01/22 08:59:57;;;;;;;21.45;8.70;;;;;;;2.18;56.24;93451.00;2044823;70;20173;-77
2024/01/22 09:02:23;;;;;;;17.40;8.07;;;;;;;2.34;55.77;93438.00;2045347;70;20511;-77
2024/01/22 09:04:48;;;;;;;12.20;5.47;;;;;;;2.58;54.65;93451.59;2045140;70;20194;-76
2024/01/22 09:07:14;;;;;;;9.23;4.60;;;;;;;2.86;53.00;93447.41;2045214;70;20163;-77
2024/01/22 09:09:41;;;;;;;7.80;3.97;;;;;;;3.02;52.95;93440.69;2044523;70;20150;-78
2024/01/22 09:12:07;;;;;;;22.75;9.00;;;;;;;3.00;53.08;93457.94;2044517;70;20142;-80
2024/01/22 09:14:33;;;;;;;20.75;9.02;;;;;;;3.15;53.94;93451.72;2044825;70;20269;-78
2024/01/22 09:16:58;;;;;;;20.52;8.50;;;;;;;3.33;53.11;93435.34;2044887;70;20147;-77
2024/01/22 09:19:24;;;;;;;13.23;5.95;;;;;;;3.35;51.47;93432.78;2045040;70;20151;-81
2024/01/22 09:21:49;;;;;;;7.82;4.43;;;;;;;3.38;50.60;93415.72;2044978;70;20162;-77
2024/01/22 09:24:15;;;;;;;9.00;4.90;;;;;;;3.64;51.35;93416.81;2044789;70;20213;-77
2024/01/22 09:26:40;;;;;;;10.02;4.40;;;;;;;3.72;51.83;93418.34;2044321;70;20515;-76
2024/01/22 09:29:06;;;;;;;8.80;3.78;;;;;;;4.02;50.44;93419.78;2044891;70;20630;-76
2024/01/22 09:31:32;;;;;;;10.27;4.60;;;;;;;3.88;49.65;93430.28;2045268;70;20551;-77
2024/01/22 09:33:58;;;;;;;9.07;3.95;;;;;;;3.89;49.36;93423.41;2044436;70;20151;-77
2024/01/22 09:36:23;;;;;;;6.50;2.70;;;;;;;4.07;48.37;93433.53;2044953;70;20154;-77
2024/01/22 09:38:49;;;;;;;6.93;3.05;;;;;;;4.21;48.11;93442.50;2044230;70;20155;-77
2024/01/22 09:41:15;;;;;;;7.47;2.83;;;;;;;4.26;47.20;93438.84;2044806;70;20181;-77
2024/01/22 09:43:41;;;;;;;8.05;3.35;;;;;;;4.26;48.03;93444.41;2044078;70;20627;-81
2024/01/22 09:46:08;;;;;;;7.03;2.90;;;;;;;4.31;47.15;93445.53;2044787;70;20143;-78
2024/01/22 09:48:35;;;;;;;16.30;6.05;;;;;;;4.27;47.37;93439.56;2044801;70;20151;-78
2024/01/22 09:51:03;;;;;;;10.23;3.63;;;;;;;4.42;48.36;93422.16;2044883;70;20603;-78
2024/01/22 09:53:34;;;;;;;7.35;3.00;;;;;;;4.47;50.71;93416.38;2044755;70;20217;-77
2024/01/22 09:56:02;;;;;;;14.13;5.80;;;;;;;4.46;48.88;93425.31;2044858;70;20227;-77
2024/01/22 09:58:34;;;;;;;32.72;9.25;;;;;;;4.23;50.40;93433.63;2044849;70;20249;-78
2024/01/22 10:01:02;;;;;;;24.83;7.90;;;;;;;4.46;50.82;93428.84;2044692;70;20155;-78
2024/01/22 10:03:32;;;;;;;17.45;8.10;;;;;;;4.54;51.45;93420.50;2041546;70;20159;-77
2024/01/22 10:05:59;;;;;;;22.90;7.53;;;;;;;4.67;52.32;93409.16;2044801;70;20145;-78
2024/01/22 10:08:25;;;;;;;23.67;7.05;;;;;;;4.70;53.90;93410.13;2045371;70;20313;-76
2024/01/22 10:10:50;;;;;;;17.67;5.40;;;;;;;4.85;53.68;93407.34;2048135;70;20591;-77
2024/01/22 10:13:17;;;;;;;13.30;5.15;;;;;;;4.83;51.60;93402.31;2047946;70;20170;-76
2024/01/22 10:15:44;;;;;;;10.68;3.80;;;;;;;4.83;47.49;93393.94;2048000;70;20217;-77
2024/01/22 10:18:17;;;;;;;9.00;4.30;;;;;;;5.01;47.15;93366.25;2047910;70;20135;-78
2024/01/22 10:20:46;;;;;;;6.93;3.63;;;;;;;5.37;46.86;93360.44;2048061;70;20576;-77
2024/01/22 10:23:13;;;;;;;10.93;3.88;;;;;;;5.57;47.48;93355.91;2047833;70;20131;-78
2024/01/22 10:25:39;;;;;;;11.00;3.40;;;;;;;5.55;45.11;93341.78;2047928;70;20148;-78
2024/01/22 10:28:22;;;;;;;7.05;3.22;;;;;;;5.61;45.19;93331.13;2048132;70;20609;-77
2024/01/22 10:31:04;;;;;;;13.40;3.35;;;;;;;5.66;44.52;93329.44;2048053;70;20139;-79
2024/01/22 10:33:30;;;;;;;5.43;2.65;;;;;;;5.91;44.69;93335.88;2048096;70;20156;-77
2024/01/22 10:35:57;;;;;;;9.95;2.85;;;;;;;5.96;43.95;93334.22;2047984;70;20143;-79
2024/01/22 10:38:24;;;;;;;6.97;2.88;;;;;;;6.06;44.90;93329.50;2047286;70;20139;-77
2024/01/22 10:40:49;;;;;;;7.38;2.45;;;;;;;6.25;42.97;93321.38;2047266;70;20181;-78
2024/01/22 10:43:28;;;;;;;6.03;2.35;;;;;;;6.52;42.67;93324.38;2047895;70;20611;-77
2024/01/22 10:45:56;;;;;;;13.60;4.32;;;;;;;6.65;42.29;93295.41;2047939;70;20167;-78
2024/01/22 10:48:24;;;;;;;10.07;4.20;;;;;;;6.82;42.01;93314.28;2047379;70;20157;-76
2024/01/22 10:50:51;;;;;;;12.77;5.20;;;;;;;6.82;42.72;93301.03;2048009;70;20306;-78
2024/01/22 10:53:19;;;;;;;22.60;9.90;;;;;;;6.66;43.33;93298.94;2047806;70;20217;-80
2024/01/22 10:56:01;;;;;;;12.70;4.15;;;;;;;6.93;41.95;93293.50;2047861;70;20150;-79
2024/01/22 10:58:42;;;;;;;9.60;4.45;;;;;;;7.32;42.19;93275.72;2047783;70;20543;-77
2024/01/22 11:01:19;;;;;;;9.02;3.13;;;;;;;7.45;41.36;93268.31;2047771;70;20693;-77
2024/01/22 11:03:53;;;;;;;9.15;2.78;;;;;;;7.82;40.60;93253.13;2047912;70;20139;-77
2024/01/22 11:06:27;;;;;;;10.38;3.13;;;;;;;7.83;40.46;93242.63;2047969;70;20186;-78
2024/01/22 11:08:56;;;;;;;5.72;3.15;;;;;;;7.90;39.62;93239.75;2047278;70;20150;-77
2024/01/22 11:11:27;;;;;;;7.05;3.17;;;;;;;8.12;39.44;93229.53;2047963;70;20230;-78
2024/01/22 11:14:02;;;;;;;6.97;2.00;;;;;;;8.30;37.50;93227.41;2047961;70;20139;-77
2024/01/22 11:16:28;;;;;;;9.82;2.45;;;;;;;8.51;39.16;93226.19;2047947;70;20232;-77
2024/01/22 11:19:00;;;;;;;13.38;6.13;;;;;;;8.17;41.35;93232.66;2047952;70;20160;-77
2024/01/22 11:21:37;;;;;;;23.20;6.95;;;;;;;9.35;41.10;93233.19;2047923;70;20260;-77
2024/01/22 11:24:06;;;;;;;21.35;6.50;;;;;;;9.48;39.85;93234.81;2048294;70;20154;-78
2024/01/22 11:26:33;;;;;;;14.38;3.72;;;;;;;9.64;37.96;93233.19;2048439;70;20149;-79
2024/01/22 11:29:09;;;;;;;6.45;2.85;;;;;;;10.06;37.46;93238.31;2048360;70;20166;-78
2024/01/22 11:31:36;;;;;;;7.20;2.65;;;;;;;11.87;35.73;93232.97;2048231;70;20142;-79